sensor_id;sensor_type;location;lat;lon;timestamp;pressure;altitude;pressure_sealevel;temperature;humidity
5413;BME280;2729;50.056;8.678;2023-03-25T00:01:05;99430.44;;;11.33;100.00
5413;BME280;2729;50.056;8.678;2023-03-25T00:03:35;99420.56;;;11.19;100.00
5413;BME280;2729;50.056;8.678;2023-03-25T00:06:09;99413.91;;;10.90;100.00
5413;BME280;2729;50.056;8.678;2023-03-25T00:08:37;99420.06;;;10.89;100.00
5413;BME280;2729;50.056;8.678;2023-03-25T00:11:04;99428.38;;;10.77;100.00
5413;BME280;2729;50.056;8.678;2023-03-25T00:13:32;99425.75;;;10.77;100.00
5413;BME280;2729;50.056;8.678;2023-03-25T00:16:01;99413.75;;;10.73;100.00
5413;BME280;2729;50.056;8.678;2023-03-25T00:18:29;99415.00;;;10.62;100.00
5413;BME280;2729;50.056;8.678;2023-03-25T00:21:00;99417.44;;;10.89;100.00
5413;BME280;2729;50.056;8.678;2023-03-25T00:23:27;99415.81;;;10.65;100.00
5413;BME280;2729;50.056;8.678;2023-03-25T00:25:53;99423.44;;;10.91;100.00
5413;BME280;2729;50.056;8.678;2023-03-25T00:28:27;99428.97;;;10.61;100.00
5413;BME280;2729;50.056;8.678;2023-03-25T00:30:53;99423.63;;;10.65;100.00
5413;BME280;2729;50.056;8.678;2023-03-25T00:33:19;99427.44;;;10.56;100.00
5413;BME280;2729;50.056;8.678;2023-03-25T00:35:50;99426.25;;;10.86;100.00
5413;BME280;2729;50.056;8.678;2023-03-25T00:38:19;99418.22;;;10.91;100.00
5413;BME280;2729;50.056;8.678;2023-03-25T00:40:45;99418.66;;;11.02;100.00
5413;BME280;2729;50.056;8.678;2023-03-25T00:43:14;99417.00;;;11.00;100.00
5413;BME280;2729;50.056;8.678;2023-03-25T00:45:40;99423.63;;;11.08;100.00
5413;BME280;2729;50.056;8.678;2023-03-25T00:48:06;99417.50;;;10.87;100.00
5413;BME280;2729;50.056;8.678;2023-03-25T00:50:32;99436.00;;;11.03;100.00
5413;BME280;2729;50.056;8.678;2023-03-25T00:52:59;99439.72;;;10.76;100.00
5413;BME280;2729;50.056;8.678;2023-03-25T00:55:25;99447.66;;;10.51;100.00
5413;BME280;2729;50.056;8.678;2023-03-25T00:57:52;99446.38;;;10.61;100.00
5413;BME280;2729;50.056;8.678;2023-03-25T01:00:18;99443.13;;;10.78;100.00
5413;BME280;2729;50.056;8.678;2023-03-25T01:02:44;99440.31;;;10.60;100.00
5413;BME280;2729;50.056;8.678;2023-03-25T01:05:11;99434.47;;;10.54;100.00
5413;BME280;2729;50.056;8.678;2023-03-25T01:07:38;99439.22;;;10.66;100.00
5413;BME280;2729;50.056;8.678;2023-03-25T01:10:06;99428.97;;;10.83;100.00
5413;BME280;2729;50.056;8.678;2023-03-25T01:12:32;99428.91;;;10.63;100.00
5413;BME280;2729;50.056;8.678;2023-03-25T01:14:58;99424.19;;;10.73;100.00
5413;BME280;2729;50.056;8.678;2023-03-25T01:17:24;99413.63;;;10.76;100.00
5413;BME280;2729;50.056;8.678;2023-03-25T01:19:51;99399.72;;;10.97;100.00
5413;BME280;2729;50.056;8.678;2023-03-25T01:22:17;99401.84;;;10.87;100.00
5413;BME280;2729;50.056;8.678;2023-03-25T01:24:43;99405.84;;;10.96;100.00
5413;BME280;2729;50.056;8.678;2023-03-25T01:27:10;99403.78;;;10.82;100.00
5413;BME280;2729;50.056;8.678;2023-03-25T01:29:36;99408.16;;;10.60;100.00
5413;BME280;2729;50.056;8.678;2023-03-25T01:32:02;99405.31;;;10.66;100.00
5413;BME280;2729;50.056;8.678;2023-03-25T01:34:31;99407.63;;;10.74;100.00
5413;BME280;2729;50.056;8.678;2023-03-25T01:36:58;99403.34;;;10.93;100.00
5413;BME280;2729;50.056;8.678;2023-03-25T01:39:24;99398.16;;;10.71;100.00
5413;BME280;2729;50.056;8.678;2023-03-25T01:41:50;99399.41;;;10.61;100.00
5413;BME280;2729;50.056;8.678;2023-03-25T01:46:47;99390.44;;;10.68;100.00
5413;BME280;2729;50.056;8.678;2023-03-25T01:52:23;99388.72;;;10.89;100.00
5413;BME280;2729;50.056;8.678;2023-03-25T01:54:51;99383.25;;;10.95;100.00
5413;BME280;2729;50.056;8.678;2023-03-25T01:57:20;99384.06;;;11.17;100.00
5413;BME280;2729;50.056;8.678;2023-03-25T01:59:48;99380.72;;;10.93;100.00
5413;BME280;2729;50.056;8.678;2023-03-25T02:02:15;99376.75;;;11.05;100.00
5413;BME280;2729;50.056;8.678;2023-03-25T02:05:04;99379.22;;;11.08;100.00
5413;BME280;2729;50.056;8.678;2023-03-25T02:07:39;99365.59;;;11.22;100.00
5413;BME280;2729;50.056;8.678;2023-03-25T02:10:09;99367.09;;;11.27;100.00
5413;BME280;2729;50.056;8.678;2023-03-25T02:12:36;99364.22;;;11.34;100.00
5413;BME280;2729;50.056;8.678;2023-03-25T02:15:04;99367.22;;;11.04;100.00
5413;BME280;2729;50.056;8.678;2023-03-25T02:17:49;99359.19;;;11.29;100.00
5413;BME280;2729;50.056;8.678;2023-03-25T02:20:45;99366.91;;;11.32;100.00
5413;BME280;2729;50.056;8.678;2023-03-25T02:23:27;99357.38;;;11.11;100.00
5413;BME280;2729;50.056;8.678;2023-03-25T02:29:14;99353.25;;;11.25;100.00
5413;BME280;2729;50.056;8.678;2023-03-25T02:32:05;99361.75;;;11.31;100.00
5413;BME280;2729;50.056;8.678;2023-03-25T02:37:22;99356.97;;;11.00;100.00
5413;BME280;2729;50.056;8.678;2023-03-25T02:40:06;99349.06;;;11.01;100.00
5413;BME280;2729;50.056;8.678;2023-03-25T02:42:46;99341.56;;;11.14;100.00
5413;BME280;2729;50.056;8.678;2023-03-25T02:45:29;99344.97;;;11.16;100.00
5413;BME280;2729;50.056;8.678;2023-03-25T02:48:22;99341.63;;;11.12;100.00
5413;BME280;2729;50.056;8.678;2023-03-25T02:50:54;99344.56;;;11.25;100.00
5413;BME280;2729;50.056;8.678;2023-03-25T02:53:28;99340.25;;;11.04;100.00
5413;BME280;2729;50.056;8.678;2023-03-25T02:55:58;99340.47;;;11.19;100.00
5413;BME280;2729;50.056;8.678;2023-03-25T02:58:27;99338.31;;;11.09;100.00
5413;BME280;2729;50.056;8.678;2023-03-25T03:00:55;99348.28;;;11.19;100.00
5413;BME280;2729;50.056;8.678;2023-03-25T03:03:27;99347.25;;;11.03;100.00
5413;BME280;2729;50.056;8.678;2023-03-25T03:05:59;99360.22;;;11.05;100.00
5413;BME280;2729;50.056;8.678;2023-03-25T03:11:24;99350.63;;;11.05;100.00
5413;BME280;2729;50.056;8.678;2023-03-25T03:17:13;99347.91;;;11.28;100.00
5413;BME280;2729;50.056;8.678;2023-03-25T03:19:48;99350.25;;;11.35;100.00
5413;BME280;2729;50.056;8.678;2023-03-25T03:22:34;99346.06;;;11.10;100.00
5413;BME280;2729;50.056;8.678;2023-03-25T03:28:02;99353.59;;;11.18;100.00
5413;BME280;2729;50.056;8.678;2023-03-25T03:30:45;99354.69;;;11.33;100.00
5413;BME280;2729;50.056;8.678;2023-03-25T03:33:22;99360.22;;;11.05;100.00
5413;BME280;2729;50.056;8.678;2023-03-25T03:35:54;99361.34;;;11.19;100.00
5413;BME280;2729;50.056;8.678;2023-03-25T03:38:25;99367.38;;;11.42;100.00
5413;BME280;2729;50.056;8.678;2023-03-25T03:40:57;99358.59;;;11.63;100.00
5413;BME280;2729;50.056;8.678;2023-03-25T03:43:29;99365.78;;;11.38;100.00
5413;BME280;2729;50.056;8.678;2023-03-25T03:46:02;99365.59;;;11.22;100.00
5413;BME280;2729;50.056;8.678;2023-03-25T03:48:44;99368.78;;;12.08;100.00
5413;BME280;2729;50.056;8.678;2023-03-25T03:51:27;99363.72;;;11.25;100.00
5413;BME280;2729;50.056;8.678;2023-03-25T03:53:58;99375.56;;;11.12;100.00
5413;BME280;2729;50.056;8.678;2023-03-25T03:56:41;99377.66;;;11.04;100.00
5413;BME280;2729;50.056;8.678;2023-03-25T03:59:41;99380.53;;;11.18;100.00
5413;BME280;2729;50.056;8.678;2023-03-25T04:02:19;99371.34;;;11.50;100.00
5413;BME280;2729;50.056;8.678;2023-03-25T04:04:49;99380.53;;;11.59;100.00
5413;BME280;2729;50.056;8.678;2023-03-25T04:07:18;99380.06;;;11.09;100.00
5413;BME280;2729;50.056;8.678;2023-03-25T04:10:02;99387.94;;;10.87;100.00
5413;BME280;2729;50.056;8.678;2023-03-25T04:12:36;99382.75;;;11.68;100.00
5413;BME280;2729;50.056;8.678;2023-03-25T04:15:05;99388.38;;;11.18;100.00
5413;BME280;2729;50.056;8.678;2023-03-25T04:17:31;99382.44;;;11.35;100.00
5413;BME280;2729;50.056;8.678;2023-03-25T04:19:58;99391.06;;;11.57;100.00
5413;BME280;2729;50.056;8.678;2023-03-25T04:22:24;99391.06;;;11.37;100.00
5413;BME280;2729;50.056;8.678;2023-03-25T04:24:50;99393.03;;;11.32;100.00
5413;BME280;2729;50.056;8.678;2023-03-25T04:27:19;99390.19;;;10.96;100.00
5413;BME280;2729;50.056;8.678;2023-03-25T04:29:48;99395.16;;;11.02;100.00
5413;BME280;2729;50.056;8.678;2023-03-25T04:32:16;99406.31;;;11.06;100.00
5413;BME280;2729;50.056;8.678;2023-03-25T04:34:43;99397.78;;;11.22;100.00
5413;BME280;2729;50.056;8.678;2023-03-25T04:37:11;99399.88;;;11.55;100.00
5413;BME280;2729;50.056;8.678;2023-03-25T04:39:37;99396.94;;;11.63;100.00
5413;BME280;2729;50.056;8.678;2023-03-25T04:42:04;99412.81;;;11.17;100.00
5413;BME280;2729;50.056;8.678;2023-03-25T04:44:30;99404.94;;;10.97;100.00
5413;BME280;2729;50.056;8.678;2023-03-25T04:47:06;99409.84;;;11.05;100.00
5413;BME280;2729;50.056;8.678;2023-03-25T04:49:38;99417.97;;;11.39;100.00
5413;BME280;2729;50.056;8.678;2023-03-25T04:52:04;99416.50;;;11.12;100.00
5413;BME280;2729;50.056;8.678;2023-03-25T04:54:36;99415.91;;;11.05;100.00
5413;BME280;2729;50.056;8.678;2023-03-25T05:03:48;99419.06;;;11.13;100.00
5413;BME280;2729;50.056;8.678;2023-03-25T05:06:16;99408.69;;;10.90;100.00
5413;BME280;2729;50.056;8.678;2023-03-25T05:08:42;99422.16;;;11.23;100.00
5413;BME280;2729;50.056;8.678;2023-03-25T05:11:08;99417.56;;;11.08;100.00
5413;BME280;2729;50.056;8.678;2023-03-25T05:13:35;99423.38;;;11.14;100.00
5413;BME280;2729;50.056;8.678;2023-03-25T05:16:01;99413.66;;;11.38;100.00
5413;BME280;2729;50.056;8.678;2023-03-25T05:18:27;99416.03;;;11.02;100.00
5413;BME280;2729;50.056;8.678;2023-03-25T05:20:53;99413.84;;;11.13;100.00
5413;BME280;2729;50.056;8.678;2023-03-25T05:23:21;99413.69;;;10.96;100.00
5413;BME280;2729;50.056;8.678;2023-03-25T05:25:49;99422.47;;;10.93;100.00
5413;BME280;2729;50.056;8.678;2023-03-25T05:28:16;99423.22;;;10.97;100.00
5413;BME280;2729;50.056;8.678;2023-03-25T05:30:44;99429.47;;;10.93;100.00
5413;BME280;2729;50.056;8.678;2023-03-25T05:33:12;99442.75;;;10.87;100.00
5413;BME280;2729;50.056;8.678;2023-03-25T05:35:40;99452.16;;;10.91;100.00
5413;BME280;2729;50.056;8.678;2023-03-25T05:38:06;99461.16;;;10.84;100.00
5413;BME280;2729;50.056;8.678;2023-03-25T05:40:39;99460.53;;;10.77;100.00
5413;BME280;2729;50.056;8.678;2023-03-25T05:43:06;99459.44;;;10.61;100.00
5413;BME280;2729;50.056;8.678;2023-03-25T05:45:33;99464.47;;;10.66;100.00
5413;BME280;2729;50.056;8.678;2023-03-25T05:48:01;99472.13;;;10.70;100.00
5413;BME280;2729;50.056;8.678;2023-03-25T05:50:28;99458.63;;;10.59;100.00
5413;BME280;2729;50.056;8.678;2023-03-25T05:52:54;99467.53;;;10.53;100.00
5413;BME280;2729;50.056;8.678;2023-03-25T05:55:21;99479.22;;;10.43;100.00
5413;BME280;2729;50.056;8.678;2023-03-25T05:57:48;99468.50;;;10.27;100.00
5413;BME280;2729;50.056;8.678;2023-03-25T06:00:16;99468.63;;;10.48;100.00
5413;BME280;2729;50.056;8.678;2023-03-25T06:02:44;99464.53;;;10.64;100.00
5413;BME280;2729;50.056;8.678;2023-03-25T06:05:15;99467.00;;;10.45;100.00
5413;BME280;2729;50.056;8.678;2023-03-25T06:07:42;99466.03;;;10.23;100.00
5413;BME280;2729;50.056;8.678;2023-03-25T06:10:09;99467.09;;;10.42;100.00
5413;BME280;2729;50.056;8.678;2023-03-25T06:12:36;99470.63;;;10.86;100.00
5413;BME280;2729;50.056;8.678;2023-03-25T06:15:08;99473.50;;;10.57;100.00
5413;BME280;2729;50.056;8.678;2023-03-25T06:17:34;99475.50;;;10.50;100.00
5413;BME280;2729;50.056;8.678;2023-03-25T06:20:08;99472.56;;;10.81;100.00
5413;BME280;2729;50.056;8.678;2023-03-25T06:22:38;99482.41;;;10.51;100.00
5413;BME280;2729;50.056;8.678;2023-03-25T06:25:05;99468.75;;;10.90;100.00
5413;BME280;2729;50.056;8.678;2023-03-25T06:27:33;99468.34;;;10.55;100.00
5413;BME280;2729;50.056;8.678;2023-03-25T06:30:02;99479.13;;;11.55;100.00
5413;BME280;2729;50.056;8.678;2023-03-25T06:32:28;99461.16;;;12.67;100.00
5413;BME280;2729;50.056;8.678;2023-03-25T06:34:56;99468.38;;;11.63;100.00
5413;BME280;2729;50.056;8.678;2023-03-25T06:37:22;99470.28;;;11.38;100.00
5413;BME280;2729;50.056;8.678;2023-03-25T06:39:51;99467.94;;;11.32;100.00
5413;BME280;2729;50.056;8.678;2023-03-25T06:42:22;99480.50;;;11.44;100.00
5413;BME280;2729;50.056;8.678;2023-03-25T06:45:07;99474.38;;;11.65;100.00
5413;BME280;2729;50.056;8.678;2023-03-25T06:47:56;99470.53;;;12.14;100.00
5413;BME280;2729;50.056;8.678;2023-03-25T06:50:22;99472.13;;;11.36;100.00
5413;BME280;2729;50.056;8.678;2023-03-25T06:52:48;99473.38;;;11.47;100.00
5413;BME280;2729;50.056;8.678;2023-03-25T06:55:14;99473.41;;;11.68;100.00
5413;BME280;2729;50.056;8.678;2023-03-25T06:57:41;99476.22;;;11.21;100.00
5413;BME280;2729;50.056;8.678;2023-03-25T07:00:09;99473.03;;;11.35;100.00
5413;BME280;2729;50.056;8.678;2023-03-25T07:02:37;99469.97;;;11.45;100.00
5413;BME280;2729;50.056;8.678;2023-03-25T07:05:04;99467.69;;;11.58;100.00
5413;BME280;2729;50.056;8.678;2023-03-25T07:07:30;99458.59;;;11.88;100.00
5413;BME280;2729;50.056;8.678;2023-03-25T07:09:56;99457.84;;;12.63;100.00
5413;BME280;2729;50.056;8.678;2023-03-25T07:12:25;99454.34;;;12.25;100.00
5413;BME280;2729;50.056;8.678;2023-03-25T07:14:52;99456.97;;;11.86;100.00
5413;BME280;2729;50.056;8.678;2023-03-25T07:17:19;99470.66;;;11.71;100.00
5413;BME280;2729;50.056;8.678;2023-03-25T07:19:45;99464.38;;;11.54;100.00
5413;BME280;2729;50.056;8.678;2023-03-25T07:22:11;99463.63;;;12.88;100.00
5413;BME280;2729;50.056;8.678;2023-03-25T07:24:37;99462.34;;;11.61;100.00
5413;BME280;2729;50.056;8.678;2023-03-25T07:27:03;99455.22;;;12.44;100.00
5413;BME280;2729;50.056;8.678;2023-03-25T07:29:31;99467.38;;;12.64;100.00
5413;BME280;2729;50.056;8.678;2023-03-25T07:31:57;99469.06;;;12.28;100.00
5413;BME280;2729;50.056;8.678;2023-03-25T07:34:23;99459.59;;;12.81;100.00
5413;BME280;2729;50.056;8.678;2023-03-25T07:36:49;99450.81;;;12.45;100.00
5413;BME280;2729;50.056;8.678;2023-03-25T07:39:15;99450.19;;;12.77;100.00
5413;BME280;2729;50.056;8.678;2023-03-25T07:41:43;99463.38;;;12.18;100.00
5413;BME280;2729;50.056;8.678;2023-03-25T07:44:19;99457.94;;;11.83;100.00
5413;BME280;2729;50.056;8.678;2023-03-25T07:46:47;99462.50;;;12.56;100.00
5413;BME280;2729;50.056;8.678;2023-03-25T07:49:14;99456.53;;;12.91;100.00
5413;BME280;2729;50.056;8.678;2023-03-25T07:51:42;99455.19;;;12.82;100.00
5413;BME280;2729;50.056;8.678;2023-03-25T07:54:08;99453.34;;;13.22;100.00
5413;BME280;2729;50.056;8.678;2023-03-25T07:56:34;99453.06;;;13.09;100.00
5413;BME280;2729;50.056;8.678;2023-03-25T07:59:00;99451.94;;;12.96;100.00
5413;BME280;2729;50.056;8.678;2023-03-25T08:01:26;99458.16;;;13.12;100.00
5413;BME280;2729;50.056;8.678;2023-03-25T08:03:52;99442.88;;;13.39;100.00
5413;BME280;2729;50.056;8.678;2023-03-25T08:06:18;99448.97;;;13.39;100.00
5413;BME280;2729;50.056;8.678;2023-03-25T08:08:44;99447.47;;;12.98;100.00
5413;BME280;2729;50.056;8.678;2023-03-25T08:11:11;99440.91;;;12.70;100.00
5413;BME280;2729;50.056;8.678;2023-03-25T08:13:37;99443.97;;;13.16;100.00
5413;BME280;2729;50.056;8.678;2023-03-25T08:16:11;99438.53;;;13.90;100.00
5413;BME280;2729;50.056;8.678;2023-03-25T08:18:38;99458.31;;;13.45;100.00
5413;BME280;2729;50.056;8.678;2023-03-25T08:21:05;99444.81;;;13.35;100.00
5413;BME280;2729;50.056;8.678;2023-03-25T08:23:31;99452.75;;;13.68;100.00
5413;BME280;2729;50.056;8.678;2023-03-25T08:26:01;99432.59;;;13.86;100.00
5413;BME280;2729;50.056;8.678;2023-03-25T08:28:27;99450.97;;;13.86;100.00
5413;BME280;2729;50.056;8.678;2023-03-25T08:30:53;99433.31;;;13.72;100.00
5413;BME280;2729;50.056;8.678;2023-03-25T08:33:22;99448.34;;;13.34;100.00
5413;BME280;2729;50.056;8.678;2023-03-25T08:35:57;99431.41;;;13.59;100.00
5413;BME280;2729;50.056;8.678;2023-03-25T08:38:23;99442.09;;;13.71;100.00
5413;BME280;2729;50.056;8.678;2023-03-25T08:40:50;99433.56;;;13.33;100.00
5413;BME280;2729;50.056;8.678;2023-03-25T08:43:15;99441.72;;;13.27;100.00
5413;BME280;2729;50.056;8.678;2023-03-25T08:45:41;99444.59;;;13.57;100.00
5413;BME280;2729;50.056;8.678;2023-03-25T08:48:07;99427.53;;;14.16;100.00
5413;BME280;2729;50.056;8.678;2023-03-25T08:50:33;99442.25;;;13.86;100.00
5413;BME280;2729;50.056;8.678;2023-03-25T08:52:59;99443.63;;;13.24;100.00
5413;BME280;2729;50.056;8.678;2023-03-25T08:55:25;99442.13;;;13.54;100.00
5413;BME280;2729;50.056;8.678;2023-03-25T08:57:51;99435.78;;;13.41;100.00
5413;BME280;2729;50.056;8.678;2023-03-25T09:00:17;99431.81;;;12.96;100.00
5413;BME280;2729;50.056;8.678;2023-03-25T09:02:49;99416.50;;;13.25;100.00
5413;BME280;2729;50.056;8.678;2023-03-25T09:05:15;99421.28;;;13.34;100.00
5413;BME280;2729;50.056;8.678;2023-03-25T09:07:41;99413.75;;;13.28;100.00
5413;BME280;2729;50.056;8.678;2023-03-25T09:10:08;99405.91;;;14.11;100.00
5413;BME280;2729;50.056;8.678;2023-03-25T09:12:34;99409.41;;;14.27;100.00
5413;BME280;2729;50.056;8.678;2023-03-25T09:15:00;99418.72;;;14.17;100.00
5413;BME280;2729;50.056;8.678;2023-03-25T09:17:26;99392.75;;;14.28;100.00
5413;BME280;2729;50.056;8.678;2023-03-25T09:19:52;99396.66;;;15.30;100.00
5413;BME280;2729;50.056;8.678;2023-03-25T09:22:18;99404.00;;;14.30;100.00
5413;BME280;2729;50.056;8.678;2023-03-25T09:24:44;99394.31;;;14.48;100.00
5413;BME280;2729;50.056;8.678;2023-03-25T09:27:10;99408.59;;;13.94;100.00
5413;BME280;2729;50.056;8.678;2023-03-25T09:29:36;99396.00;;;13.50;100.00
5413;BME280;2729;50.056;8.678;2023-03-25T09:32:02;99391.19;;;14.08;100.00
5413;BME280;2729;50.056;8.678;2023-03-25T09:34:28;99390.72;;;14.33;100.00
5413;BME280;2729;50.056;8.678;2023-03-25T09:36:54;99380.25;;;14.00;100.00
5413;BME280;2729;50.056;8.678;2023-03-25T09:39:20;99378.63;;;14.78;100.00
5413;BME280;2729;50.056;8.678;2023-03-25T09:47:35;99388.59;;;14.87;100.00
5413;BME280;2729;50.056;8.678;2023-03-25T09:50:05;99380.47;;;15.22;100.00
5413;BME280;2729;50.056;8.678;2023-03-25T09:52:44;99385.19;;;14.22;100.00
5413;BME280;2729;50.056;8.678;2023-03-25T09:55:19;99465.56;;;13.57;100.00
5413;BME280;2729;50.056;8.678;2023-03-25T09:57:51;99501.78;;;13.13;100.00
5413;BME280;2729;50.056;8.678;2023-03-25T10:00:23;99492.28;;;11.74;100.00
5413;BME280;2729;50.056;8.678;2023-03-25T10:05:49;99506.41;;;10.61;100.00
5413;BME280;2729;50.056;8.678;2023-03-25T10:08:53;99504.94;;;10.54;100.00
5413;BME280;2729;50.056;8.678;2023-03-25T10:11:30;99506.03;;;10.93;100.00
5413;BME280;2729;50.056;8.678;2023-03-25T10:14:09;99493.97;;;10.68;100.00
5413;BME280;2729;50.056;8.678;2023-03-25T10:16:48;99499.72;;;10.29;100.00
5413;BME280;2729;50.056;8.678;2023-03-25T10:24:52;99491.91;;;10.76;100.00
5413;BME280;2729;50.056;8.678;2023-03-25T10:27:28;99491.94;;;11.19;100.00
5413;BME280;2729;50.056;8.678;2023-03-25T10:30:02;99487.31;;;11.04;100.00
5413;BME280;2729;50.056;8.678;2023-03-25T10:32:45;99477.00;;;11.01;100.00
5413;BME280;2729;50.056;8.678;2023-03-25T10:35:24;99477.84;;;11.23;100.00
5413;BME280;2729;50.056;8.678;2023-03-25T10:37:53;99481.44;;;11.63;100.00
5413;BME280;2729;50.056;8.678;2023-03-25T10:43:37;99483.22;;;11.83;100.00
5413;BME280;2729;50.056;8.678;2023-03-25T10:46:30;99475.44;;;12.02;100.00
5413;BME280;2729;50.056;8.678;2023-03-25T10:48:59;99473.25;;;12.50;100.00
5413;BME280;2729;50.056;8.678;2023-03-25T10:51:30;99469.44;;;12.57;100.00
5413;BME280;2729;50.056;8.678;2023-03-25T10:53:57;99459.31;;;12.69;100.00
5413;BME280;2729;50.056;8.678;2023-03-25T10:56:31;99468.84;;;13.07;100.00
5413;BME280;2729;50.056;8.678;2023-03-25T10:59:02;99451.69;;;12.45;100.00
5413;BME280;2729;50.056;8.678;2023-03-25T11:01:41;99463.00;;;12.65;100.00
5413;BME280;2729;50.056;8.678;2023-03-25T11:04:11;99459.00;;;12.94;100.00
5413;BME280;2729;50.056;8.678;2023-03-25T11:06:40;99462.47;;;13.49;100.00
5413;BME280;2729;50.056;8.678;2023-03-25T11:11:33;99458.91;;;13.50;100.00
5413;BME280;2729;50.056;8.678;2023-03-25T11:14:01;99467.75;;;13.99;100.00
5413;BME280;2729;50.056;8.678;2023-03-25T11:16:50;99448.28;;;14.54;100.00
5413;BME280;2729;50.056;8.678;2023-03-25T11:19:26;99469.41;;;13.84;100.00
5413;BME280;2729;50.056;8.678;2023-03-25T11:22:06;99462.41;;;14.18;94.93
5413;BME280;2729;50.056;8.678;2023-03-25T11:24:34;99445.66;;;14.54;100.00
5413;BME280;2729;50.056;8.678;2023-03-25T11:27:06;99468.28;;;14.06;92.70
5413;BME280;2729;50.056;8.678;2023-03-25T11:29:35;99436.03;;;14.04;87.01
5413;BME280;2729;50.056;8.678;2023-03-25T11:32:07;99436.81;;;15.02;96.16
5413;BME280;2729;50.056;8.678;2023-03-25T11:34:37;99445.72;;;14.68;82.56
5413;BME280;2729;50.056;8.678;2023-03-25T11:37:16;99422.09;;;14.84;81.95
5413;BME280;2729;50.056;8.678;2023-03-25T11:39:48;99433.34;;;15.01;83.85
5413;BME280;2729;50.056;8.678;2023-03-25T11:42:25;99442.59;;;14.77;78.58
5413;BME280;2729;50.056;8.678;2023-03-25T11:44:55;99432.28;;;15.20;86.68
5413;BME280;2729;50.056;8.678;2023-03-25T11:47:35;99438.31;;;15.22;76.49
5413;BME280;2729;50.056;8.678;2023-03-25T11:50:04;99437.69;;;15.32;87.53
5413;BME280;2729;50.056;8.678;2023-03-25T11:55:05;99435.75;;;14.26;72.06
5413;BME280;2729;50.056;8.678;2023-03-25T11:57:37;99438.78;;;14.83;77.01
5413;BME280;2729;50.056;8.678;2023-03-25T12:00:15;99427.53;;;14.65;70.13
5413;BME280;2729;50.056;8.678;2023-03-25T12:02:44;99424.63;;;14.69;71.76
5413;BME280;2729;50.056;8.678;2023-03-25T12:05:14;99429.28;;;14.96;77.04
5413;BME280;2729;50.056;8.678;2023-03-25T12:07:46;99410.66;;;14.85;71.25
5413;BME280;2729;50.056;8.678;2023-03-25T12:13:11;99415.22;;;15.27;80.32
5413;BME280;2729;50.056;8.678;2023-03-25T12:18:46;99403.84;;;14.96;62.95
5413;BME280;2729;50.056;8.678;2023-03-25T12:21:28;99400.19;;;14.99;59.00
5413;BME280;2729;50.056;8.678;2023-03-25T12:29:53;99393.16;;;16.03;57.03
5413;BME280;2729;50.056;8.678;2023-03-25T12:32:41;99374.63;;;15.77;53.32
5413;BME280;2729;50.056;8.678;2023-03-25T12:35:29;99386.84;;;16.06;57.04
5413;BME280;2729;50.056;8.678;2023-03-25T12:38:10;99386.28;;;16.15;54.20
5413;BME280;2729;50.056;8.678;2023-03-25T12:43:23;99372.00;;;16.05;53.63
5413;BME280;2729;50.056;8.678;2023-03-25T12:52:10;99381.59;;;15.92;57.03
5413;BME280;2729;50.056;8.678;2023-03-25T12:55:02;99361.28;;;15.94;60.64
5413;BME280;2729;50.056;8.678;2023-03-25T12:57:46;99371.50;;;16.41;60.57
5413;BME280;2729;50.056;8.678;2023-03-25T13:03:32;99374.44;;;15.80;59.88
5413;BME280;2729;50.056;8.678;2023-03-25T13:08:58;99387.03;;;16.03;61.89
5413;BME280;2729;50.056;8.678;2023-03-25T13:11:33;99392.38;;;16.44;72.88
5413;BME280;2729;50.056;8.678;2023-03-25T13:14:05;99416.00;;;16.17;75.69
5413;BME280;2729;50.056;8.678;2023-03-25T13:16:37;99408.19;;;16.16;94.23
5413;BME280;2729;50.056;8.678;2023-03-25T13:19:19;99410.91;;;15.71;74.43
5413;BME280;2729;50.056;8.678;2023-03-25T13:21:51;99406.31;;;16.18;78.71
5413;BME280;2729;50.056;8.678;2023-03-25T13:27:34;99406.75;;;16.67;73.52
5413;BME280;2729;50.056;8.678;2023-03-25T13:30:04;99399.06;;;15.93;74.42
5413;BME280;2729;50.056;8.678;2023-03-25T13:32:45;99406.88;;;15.94;72.33
5413;BME280;2729;50.056;8.678;2023-03-25T13:35:54;99405.09;;;15.81;82.92
5413;BME280;2729;50.056;8.678;2023-03-25T13:38:26;99443.47;;;15.23;75.50
5413;BME280;2729;50.056;8.678;2023-03-25T13:41:27;99405.00;;;16.11;99.58
5413;BME280;2729;50.056;8.678;2023-03-25T13:46:47;99409.59;;;15.79;74.59
5413;BME280;2729;50.056;8.678;2023-03-25T13:49:20;99422.91;;;15.45;78.05
5413;BME280;2729;50.056;8.678;2023-03-25T13:51:48;99414.47;;;15.70;78.47
5413;BME280;2729;50.056;8.678;2023-03-25T13:54:34;99405.75;;;15.84;73.44
5413;BME280;2729;50.056;8.678;2023-03-25T14:00:23;99395.28;;;16.39;92.68
5413;BME280;2729;50.056;8.678;2023-03-25T14:11:45;99384.28;;;16.33;60.27
5413;BME280;2729;50.056;8.678;2023-03-25T14:14:17;99389.44;;;16.49;68.91
5413;BME280;2729;50.056;8.678;2023-03-25T14:16:49;99381.38;;;16.37;66.20
5413;BME280;2729;50.056;8.678;2023-03-25T14:19:21;99384.88;;;16.79;64.65
5413;BME280;2729;50.056;8.678;2023-03-25T14:21:50;99394.16;;;16.29;58.47
5413;BME280;2729;50.056;8.678;2023-03-25T14:24:27;99386.66;;;16.23;56.46
5413;BME280;2729;50.056;8.678;2023-03-25T14:29:39;99403.28;;;16.38;63.44
5413;BME280;2729;50.056;8.678;2023-03-25T14:34:41;99388.13;;;16.42;63.59
5413;BME280;2729;50.056;8.678;2023-03-25T14:44:09;99389.44;;;16.49;62.72
5413;BME280;2729;50.056;8.678;2023-03-25T14:46:43;99379.97;;;16.32;53.73
5413;BME280;2729;50.056;8.678;2023-03-25T14:49:19;99378.56;;;16.12;52.75
5413;BME280;2729;50.056;8.678;2023-03-25T14:51:53;99371.91;;;16.76;65.40
5413;BME280;2729;50.056;8.678;2023-03-25T14:57:13;99362.31;;;16.05;51.33
5413;BME280;2729;50.056;8.678;2023-03-25T14:59:54;99371.59;;;16.39;53.99
5413;BME280;2729;50.056;8.678;2023-03-25T15:02:27;99375.13;;;16.67;66.24
5413;BME280;2729;50.056;8.678;2023-03-25T15:05:16;99358.97;;;16.86;53.64
5413;BME280;2729;50.056;8.678;2023-03-25T15:07:50;99362.72;;;17.09;70.52
5413;BME280;2729;50.056;8.678;2023-03-25T15:10:23;99363.94;;;16.90;59.22
5413;BME280;2729;50.056;8.678;2023-03-25T15:13:26;99368.59;;;16.99;55.67
5413;BME280;2729;50.056;8.678;2023-03-25T15:16:05;99369.94;;;16.92;60.15
5413;BME280;2729;50.056;8.678;2023-03-25T15:26:39;99374.38;;;16.51;46.89
5413;BME280;2729;50.056;8.678;2023-03-25T15:34:53;99365.88;;;16.74;55.26
5413;BME280;2729;50.056;8.678;2023-03-25T15:37:55;99376.16;;;16.50;56.68